sensor_id;sensor_type;location;lat;lon;timestamp;pressure;altitude;pressure_sealevel;temperature;humidity
61014;BME280;46899;47.542;19.082;2022-11-21T00:02:59;99956.25;;;-0.62;100.00
61014;BME280;46899;47.542;19.082;2022-11-21T00:06:02;99952.81;;;-0.68;100.00
61014;BME280;46899;47.542;19.082;2022-11-21T00:09:04;99930.69;;;-0.73;100.00
61014;BME280;46899;47.542;19.082;2022-11-21T00:12:07;99929.84;;;-0.64;100.00
61014;BME280;46899;47.542;19.082;2022-11-21T00:15:09;99925.59;;;-0.67;100.00
61014;BME280;46899;47.542;19.082;2022-11-21T00:18:12;99919.59;;;-0.75;100.00
61014;BME280;46899;47.542;19.082;2022-11-21T00:21:16;99911.91;;;-0.81;100.00
61014;BME280;46899;47.542;19.082;2022-11-21T00:24:18;99916.13;;;-0.85;100.00
61014;BME280;46899;47.542;19.082;2022-11-21T00:27:21;99908.50;;;-0.88;100.00
61014;BME280;46899;47.542;19.082;2022-11-21T00:30:24;99912.75;;;-0.90;100.00
61014;BME280;46899;47.542;19.082;2022-11-21T00:33:26;99911.03;;;-0.92;100.00
61014;BME280;46899;47.542;19.082;2022-11-21T00:36:29;99914.44;;;-0.89;100.00
61014;BME280;46899;47.542;19.082;2022-11-21T00:39:31;99912.72;;;-0.87;100.00
61014;BME280;46899;47.542;19.082;2022-11-21T00:42:34;99909.34;;;-0.86;100.00
61014;BME280;46899;47.542;19.082;2022-11-21T00:45:36;99909.31;;;-0.89;100.00
61014;BME280;46899;47.542;19.082;2022-11-21T00:48:39;99891.47;;;-0.86;100.00
61014;BME280;46899;47.542;19.082;2022-11-21T00:51:41;99885.53;;;-0.83;100.00
61014;BME280;46899;47.542;19.082;2022-11-21T00:54:44;99881.28;;;-0.81;100.00
61014;BME280;46899;47.542;19.082;2022-11-21T00:57:46;99876.19;;;-0.78;100.00
61014;BME280;46899;47.542;19.082;2022-11-21T01:00:49;99885.53;;;-0.74;100.00
61014;BME280;46899;47.542;19.082;2022-11-21T01:03:51;99885.53;;;-0.74;100.00
61014;BME280;46899;47.542;19.082;2022-11-21T01:06:54;99881.28;;;-0.75;100.00
61014;BME280;46899;47.542;19.082;2022-11-21T01:09:56;99888.94;;;-0.78;100.00
61014;BME280;46899;47.542;19.082;2022-11-21T01:12:58;99889.78;;;-0.79;100.00
61014;BME280;46899;47.542;19.082;2022-11-21T01:16:11;99879.56;;;-0.82;100.00
61014;BME280;46899;47.542;19.082;2022-11-21T01:19:14;99884.66;;;-0.90;100.00
61014;BME280;46899;47.542;19.082;2022-11-21T01:22:16;99883.81;;;-0.90;100.00
61014;BME280;46899;47.542;19.082;2022-11-21T01:25:19;99881.25;;;-0.90;100.00
61014;BME280;46899;47.542;19.082;2022-11-21T01:28:21;99887.19;;;-0.96;100.00
61014;BME280;46899;47.542;19.082;2022-11-21T01:31:28;99880.38;;;-1.00;100.00
61014;BME280;46899;47.542;19.082;2022-11-21T01:34:30;99875.25;;;-1.04;100.00
61014;BME280;46899;47.542;19.082;2022-11-21T01:37:33;99875.25;;;-0.94;100.00
61014;BME280;46899;47.542;19.082;2022-11-21T01:40:38;99874.41;;;-0.96;100.00
61014;BME280;46899;47.542;19.082;2022-11-21T01:43:41;99876.12;;;-0.93;100.00
61014;BME280;46899;47.542;19.082;2022-11-21T01:46:43;99862.53;;;-0.92;100.00
61014;BME280;46899;47.542;19.082;2022-11-21T01:49:46;99867.62;;;-0.92;100.00
61014;BME280;46899;47.542;19.082;2022-11-21T01:52:49;99864.25;;;-0.78;100.00
61014;BME280;46899;47.542;19.082;2022-11-21T01:55:52;99855.78;;;-0.66;100.00
61014;BME280;46899;47.542;19.082;2022-11-21T01:58:55;99865.16;;;-0.54;100.00
61014;BME280;46899;47.542;19.082;2022-11-21T02:02:00;99855.78;;;-0.42;100.00
61014;BME280;46899;47.542;19.082;2022-11-21T02:05:04;99849.00;;;-0.46;100.00
61014;BME280;46899;47.542;19.082;2022-11-21T02:08:12;99847.28;;;-0.36;100.00
61014;BME280;46899;47.542;19.082;2022-11-21T02:11:19;99849.84;;;-0.27;100.00
61014;BME280;46899;47.542;19.082;2022-11-21T02:14:22;99855.81;;;-0.21;100.00
61014;BME280;46899;47.542;19.082;2022-11-21T02:17:25;99855.81;;;-0.04;100.00
61014;BME280;46899;47.542;19.082;2022-11-21T02:20:28;99857.53;;;-0.11;100.00
61014;BME280;46899;47.542;19.082;2022-11-21T02:23:34;99856.66;;;-0.14;100.00
61014;BME280;46899;47.542;19.082;2022-11-21T02:26:40;99853.25;;;-0.13;100.00
61014;BME280;46899;47.542;19.082;2022-11-21T02:29:43;99852.41;;;-0.08;100.00
61014;BME280;46899;47.542;19.082;2022-11-21T02:32:46;99848.16;;;0.02;100.00
61014;BME280;46899;47.542;19.082;2022-11-21T02:35:55;99849.00;;;-0.01;100.00
61014;BME280;46899;47.542;19.082;2022-11-21T02:38:57;99844.72;;;0.02;100.00
61014;BME280;46899;47.542;19.082;2022-11-21T02:42:08;99840.47;;;0.02;100.00
61014;BME280;46899;47.542;19.082;2022-11-21T02:45:15;99841.31;;;0.10;100.00
61014;BME280;46899;47.542;19.082;2022-11-21T02:48:19;99840.47;;;0.00;100.00
61014;BME280;46899;47.542;19.082;2022-11-21T02:51:22;99838.75;;;0.18;100.00
61014;BME280;46899;47.542;19.082;2022-11-21T02:54:24;99850.69;;;0.16;100.00
61014;BME280;46899;47.542;19.082;2022-11-21T02:57:27;99847.25;;;0.17;100.00
61014;BME280;46899;47.542;19.082;2022-11-21T03:00:29;99839.59;;;0.03;100.00
61014;BME280;46899;47.542;19.082;2022-11-21T03:03:32;99840.47;;;-0.10;100.00
61014;BME280;46899;47.542;19.082;2022-11-21T03:06:34;99834.50;;;-0.09;100.00
61014;BME280;46899;47.542;19.082;2022-11-21T03:09:37;99838.75;;;-0.19;100.00
61014;BME280;46899;47.542;19.082;2022-11-21T03:12:40;99843.03;;;-0.15;100.00
61014;BME280;46899;47.542;19.082;2022-11-21T03:15:42;99842.19;;;-0.11;100.00
61014;BME280;46899;47.542;19.082;2022-11-21T03:18:45;99842.19;;;-0.18;100.00
61014;BME280;46899;47.542;19.082;2022-11-21T03:21:47;99845.59;;;-0.22;100.00
61014;BME280;46899;47.542;19.082;2022-11-21T03:24:50;99846.44;;;-0.29;100.00
61014;BME280;46899;47.542;19.082;2022-11-21T03:27:52;99841.34;;;-0.25;100.00
61014;BME280;46899;47.542;19.082;2022-11-21T03:30:55;99843.88;;;-0.34;100.00
61014;BME280;46899;47.542;19.082;2022-11-21T03:33:57;99831.13;;;-0.52;100.00
61014;BME280;46899;47.542;19.082;2022-11-21T03:37:00;99831.94;;;-0.56;100.00
61014;BME280;46899;47.542;19.082;2022-11-21T03:40:02;99826.00;;;-0.55;100.00
61014;BME280;46899;47.542;19.082;2022-11-21T03:43:05;99823.44;;;-0.64;100.00
61014;BME280;46899;47.542;19.082;2022-11-21T03:46:08;99812.34;;;-0.60;100.00
61014;BME280;46899;47.542;19.082;2022-11-21T03:49:11;99817.47;;;-0.58;100.00
61014;BME280;46899;47.542;19.082;2022-11-21T03:52:14;99815.75;;;-0.62;100.00
61014;BME280;46899;47.542;19.082;2022-11-21T03:55:17;99815.75;;;-0.62;100.00
61014;BME280;46899;47.542;19.082;2022-11-21T03:58:19;99817.47;;;-0.48;100.00
61014;BME280;46899;47.542;19.082;2022-11-21T04:01:22;99803.84;;;-0.53;100.00
61014;BME280;46899;47.542;19.082;2022-11-21T04:04:25;99796.19;;;-0.53;100.00
61014;BME280;46899;47.542;19.082;2022-11-21T04:07:27;99791.91;;;-0.49;100.00
61014;BME280;46899;47.542;19.082;2022-11-21T04:10:31;99791.91;;;-0.49;100.00
61014;BME280;46899;47.542;19.082;2022-11-21T04:13:33;99786.81;;;-0.46;100.00
61014;BME280;46899;47.542;19.082;2022-11-21T04:16:36;99785.13;;;-0.38;100.00
61014;BME280;46899;47.542;19.082;2022-11-21T04:19:38;99789.38;;;-0.30;100.00
61014;BME280;46899;47.542;19.082;2022-11-21T04:22:41;99782.56;;;-0.37;100.00
61014;BME280;46899;47.542;19.082;2022-11-21T04:25:43;99775.72;;;-0.47;100.00
61014;BME280;46899;47.542;19.082;2022-11-21T04:28:46;99768.94;;;-0.36;100.00
61014;BME280;46899;47.542;19.082;2022-11-21T04:31:48;99780.00;;;-0.38;100.00
61014;BME280;46899;47.542;19.082;2022-11-21T04:34:50;99779.16;;;-0.48;100.00
61014;BME280;46899;47.542;19.082;2022-11-21T04:37:53;99765.53;;;-0.53;100.00
61014;BME280;46899;47.542;19.082;2022-11-21T04:40:55;99756.16;;;-0.58;100.00
61014;BME280;46899;47.542;19.082;2022-11-21T04:43:58;99768.09;;;-0.57;100.00
61014;BME280;46899;47.542;19.082;2022-11-21T04:47:00;99768.06;;;-0.56;100.00
61014;BME280;46899;47.542;19.082;2022-11-21T04:50:07;99768.94;;;-0.63;100.00
61014;BME280;46899;47.542;19.082;2022-11-21T04:53:10;99762.13;;;-0.58;100.00
61014;BME280;46899;47.542;19.082;2022-11-21T04:56:12;99768.94;;;-0.55;100.00
61014;BME280;46899;47.542;19.082;2022-11-21T04:59:18;99750.19;;;-0.68;100.00
61014;BME280;46899;47.542;19.082;2022-11-21T05:02:20;99752.75;;;-0.77;100.00
61014;BME280;46899;47.542;19.082;2022-11-21T05:05:23;99753.59;;;-0.89;100.00
61014;BME280;46899;47.542;19.082;2022-11-21T05:08:25;99758.69;;;-0.90;100.00
61014;BME280;46899;47.542;19.082;2022-11-21T05:11:28;99763.81;;;-0.71;100.00
61014;BME280;46899;47.542;19.082;2022-11-21T05:14:48;99760.44;;;-0.71;100.00
61014;BME280;46899;47.542;19.082;2022-11-21T05:17:51;99759.56;;;-0.73;100.00
61014;BME280;46899;47.542;19.082;2022-11-21T05:20:53;99760.41;;;-0.74;100.00
61014;BME280;46899;47.542;19.082;2022-11-21T05:23:56;99757.00;;;-0.72;100.00
61014;BME280;46899;47.542;19.082;2022-11-21T05:26:58;99750.19;;;-0.65;100.00
61014;BME280;46899;47.542;19.082;2022-11-21T05:30:00;99751.06;;;-0.69;100.00
61014;BME280;46899;47.542;19.082;2022-11-21T05:33:04;99753.62;;;-0.69;100.00
61014;BME280;46899;47.542;19.082;2022-11-21T05:36:06;99750.19;;;-0.88;100.00
61014;BME280;46899;47.542;19.082;2022-11-21T05:39:08;99752.75;;;-0.86;100.00
61014;BME280;46899;47.542;19.082;2022-11-21T05:42:11;99750.22;;;-0.80;100.00
61014;BME280;46899;47.542;19.082;2022-11-21T05:45:13;99738.28;;;-0.81;100.00
61014;BME280;46899;47.542;19.082;2022-11-21T05:48:16;99732.34;;;-0.80;100.00
61014;BME280;46899;47.542;19.082;2022-11-21T05:51:19;99744.22;;;-0.82;100.00
61014;BME280;46899;47.542;19.082;2022-11-21T05:54:22;99751.91;;;-0.79;100.00
61014;BME280;46899;47.542;19.082;2022-11-21T05:57:24;99745.94;;;-0.75;100.00
61014;BME280;46899;47.542;19.082;2022-11-21T06:00:27;99745.09;;;-0.74;100.00
61014;BME280;46899;47.542;19.082;2022-11-21T06:03:31;99740.00;;;-0.71;100.00
61014;BME280;46899;47.542;19.082;2022-11-21T06:06:34;99742.53;;;-0.77;100.00
61014;BME280;46899;47.542;19.082;2022-11-21T06:09:36;99738.28;;;-0.72;100.00
61014;BME280;46899;47.542;19.082;2022-11-21T06:12:39;99744.25;;;-0.68;100.00
61014;BME280;46899;47.542;19.082;2022-11-21T06:15:41;99740.84;;;-0.68;100.00
61014;BME280;46899;47.542;19.082;2022-11-21T06:18:44;99745.09;;;-0.62;100.00
61014;BME280;46899;47.542;19.082;2022-11-21T06:21:47;99745.09;;;-0.68;100.00
61014;BME280;46899;47.542;19.082;2022-11-21T06:24:50;99745.94;;;-0.71;100.00
61014;BME280;46899;47.542;19.082;2022-11-21T06:27:52;99747.66;;;-0.71;100.00
61014;BME280;46899;47.542;19.082;2022-11-21T06:30:54;99751.06;;;-0.66;100.00
61014;BME280;46899;47.542;19.082;2022-11-21T06:33:57;99759.56;;;-0.59;100.00
61014;BME280;46899;47.542;19.082;2022-11-21T06:37:00;99769.78;;;-0.61;100.00
61014;BME280;46899;47.542;19.082;2022-11-21T06:40:02;99763.81;;;-0.51;100.00
61014;BME280;46899;47.542;19.082;2022-11-21T06:43:05;99761.25;;;-0.42;100.00
61014;BME280;46899;47.542;19.082;2022-11-21T06:46:07;99766.38;;;-0.43;100.00
61014;BME280;46899;47.542;19.082;2022-11-21T06:49:10;99773.19;;;-0.63;100.00
61014;BME280;46899;47.542;19.082;2022-11-21T06:52:12;99780.00;;;-0.64;100.00
61014;BME280;46899;47.542;19.082;2022-11-21T06:55:15;99782.56;;;-0.58;100.00
61014;BME280;46899;47.542;19.082;2022-11-21T06:58:17;99783.41;;;-0.60;100.00
61014;BME280;46899;47.542;19.082;2022-11-21T07:01:20;99794.47;;;-0.54;100.00
61014;BME280;46899;47.542;19.082;2022-11-21T07:04:22;99791.09;;;-0.38;100.00
61014;BME280;46899;47.542;19.082;2022-11-21T07:07:25;99795.31;;;-0.16;100.00
61014;BME280;46899;47.542;19.082;2022-11-21T07:10:28;99797.84;;;0.09;100.00
61014;BME280;46899;47.542;19.082;2022-11-21T07:13:31;99800.38;;;0.19;100.00
61014;BME280;46899;47.542;19.082;2022-11-21T07:16:34;99803.78;;;0.26;100.00
61014;BME280;46899;47.542;19.082;2022-11-21T07:19:36;99801.22;;;0.26;100.00
61014;BME280;46899;47.542;19.082;2022-11-21T07:22:42;99799.44;;;0.43;100.00
61014;BME280;46899;47.542;19.082;2022-11-21T07:25:44;99799.44;;;0.43;100.00
61014;BME280;46899;47.542;19.082;2022-11-21T07:28:47;99798.53;;;0.59;100.00
61014;BME280;46899;47.542;19.082;2022-11-21T07:31:49;99796.84;;;0.58;100.00
61014;BME280;46899;47.542;19.082;2022-11-21T07:34:52;99799.38;;;0.59;100.00
61014;BME280;46899;47.542;19.082;2022-11-21T07:37:54;99796.00;;;0.50;100.00
61014;BME280;46899;47.542;19.082;2022-11-21T07:40:57;99799.41;;;0.61;100.00
61014;BME280;46899;47.542;19.082;2022-11-21T07:43:59;99804.53;;;0.52;100.00
61014;BME280;46899;47.542;19.082;2022-11-21T07:47:02;99802.84;;;0.46;100.00
61014;BME280;46899;47.542;19.082;2022-11-21T07:50:05;99796.88;;;0.49;100.00
61014;BME280;46899;47.542;19.082;2022-11-21T07:53:08;99804.56;;;0.46;100.00
61014;BME280;46899;47.542;19.082;2022-11-21T07:56:12;99802.84;;;0.48;100.00
61014;BME280;46899;47.542;19.082;2022-11-21T07:59:14;99811.41;;;0.47;100.00
61014;BME280;46899;47.542;19.082;2022-11-21T08:02:20;99815.63;;;0.55;100.00
61014;BME280;46899;47.542;19.082;2022-11-21T08:05:24;99816.41;;;0.74;100.00
61014;BME280;46899;47.542;19.082;2022-11-21T08:08:26;99816.41;;;0.73;100.00
61014;BME280;46899;47.542;19.082;2022-11-21T08:11:28;99815.47;;;0.90;100.00
61014;BME280;46899;47.542;19.082;2022-11-21T08:14:32;99820.53;;;1.05;100.00
61014;BME280;46899;47.542;19.082;2022-11-21T08:17:34;99829.91;;;1.08;100.00
61014;BME280;46899;47.542;19.082;2022-11-21T08:20:37;99822.09;;;1.29;100.00
61014;BME280;46899;47.542;19.082;2022-11-21T08:23:40;99821.88;;;1.59;100.00
61014;BME280;46899;47.542;19.082;2022-11-21T08:26:42;99827.72;;;1.78;100.00
61014;BME280;46899;47.542;19.082;2022-11-21T08:29:45;99819.72;;;2.11;100.00
61014;BME280;46899;47.542;19.082;2022-11-21T08:32:56;99827.19;;;2.32;100.00
61014;BME280;46899;47.542;19.082;2022-11-21T08:36:02;99830.56;;;2.39;100.00
61014;BME280;46899;47.542;19.082;2022-11-21T08:39:04;99830.50;;;2.43;100.00
61014;BME280;46899;47.542;19.082;2022-11-21T08:42:08;99835.63;;;2.45;100.00
61014;BME280;46899;47.542;19.082;2022-11-21T08:45:11;99835.63;;;2.43;100.00
61014;BME280;46899;47.542;19.082;2022-11-21T08:48:13;99849.19;;;2.54;100.00
61014;BME280;46899;47.542;19.082;2022-11-21T08:51:16;99846.63;;;2.54;100.00
61014;BME280;46899;47.542;19.082;2022-11-21T08:54:19;99852.69;;;2.47;100.00
61014;BME280;46899;47.542;19.082;2022-11-21T08:57:21;99845.91;;;2.43;100.00
61014;BME280;46899;47.542;19.082;2022-11-21T09:00:24;99851.84;;;2.48;100.00
61014;BME280;46899;47.542;19.082;2022-11-21T09:03:26;99847.72;;;2.32;100.00
61014;BME280;46899;47.542;19.082;2022-11-21T09:06:32;99846.03;;;2.31;100.00
61014;BME280;46899;47.542;19.082;2022-11-21T09:09:35;99852.69;;;2.49;100.00
61014;BME280;46899;47.542;19.082;2022-11-21T09:12:37;99853.38;;;2.64;100.00
61014;BME280;46899;47.542;19.082;2022-11-21T09:15:40;99843.03;;;2.69;100.00
61014;BME280;46899;47.542;19.082;2022-11-21T09:19:01;99836.66;;;3.02;100.00
61014;BME280;46899;47.542;19.082;2022-11-21T09:22:04;99831.34;;;3.14;100.00
61014;BME280;46899;47.542;19.082;2022-11-21T09:25:06;99838.25;;;3.09;100.00
61014;BME280;46899;47.542;19.082;2022-11-21T09:28:09;99836.47;;;3.17;100.00
61014;BME280;46899;47.542;19.082;2022-11-21T09:31:12;99836.38;;;3.21;100.00
61014;BME280;46899;47.542;19.082;2022-11-21T09:34:16;99830.47;;;3.16;100.00
61014;BME280;46899;47.542;19.082;2022-11-21T09:37:19;99827.00;;;3.19;100.00
61014;BME280;46899;47.542;19.082;2022-11-21T09:40:22;99834.66;;;3.25;100.00
61014;BME280;46899;47.542;19.082;2022-11-21T09:43:28;99839.22;;;3.03;100.00
61014;BME280;46899;47.542;19.082;2022-11-21T09:46:39;99845.12;;;3.10;100.00
61014;BME280;46899;47.542;19.082;2022-11-21T09:49:47;99843.25;;;3.22;100.00
61014;BME280;46899;47.542;19.082;2022-11-21T09:52:55;99839.09;;;3.12;100.00
61014;BME280;46899;47.542;19.082;2022-11-21T09:56:12;99847.66;;;3.13;100.00
61014;BME280;46899;47.542;19.082;2022-11-21T09:59:31;99842.56;;;3.08;100.00
61014;BME280;46899;47.542;19.082;2022-11-21T10:02:35;99836.56;;;3.11;100.00
61014;BME280;46899;47.542;19.082;2022-11-21T10:05:46;99831.22;;;3.23;100.00
61014;BME280;46899;47.542;19.082;2022-11-21T10:18:43;99828.13;;;3.59;100.00
61014;BME280;46899;47.542;19.082;2022-11-21T10:25:19;99816.69;;;3.78;100.00
61014;BME280;46899;47.542;19.082;2022-11-21T10:31:32;99809.84;;;4.25;100.00
61014;BME280;46899;47.542;19.082;2022-11-21T10:34:37;99804.91;;;4.12;100.00
61014;BME280;46899;47.542;19.082;2022-11-21T10:37:53;99801.66;;;3.53;100.00
61014;BME280;46899;47.542;19.082;2022-11-21T10:41:08;99802.44;;;3.58;100.00
61014;BME280;46899;47.542;19.082;2022-11-21T10:44:22;99783.72;;;3.98;100.00
61014;BME280;46899;47.542;19.082;2022-11-21T10:47:48;99784.53;;;4.02;100.00
61014;BME280;46899;47.542;19.082;2022-11-21T10:54:14;99790.53;;;4.02;100.00
61014;BME280;46899;47.542;19.082;2022-11-21T10:57:36;99780.47;;;3.90;100.00
61014;BME280;46899;47.542;19.082;2022-11-21T11:00:40;99786.84;;;4.15;100.00
61014;BME280;46899;47.542;19.082;2022-11-21T11:07:29;99783.69;;;4.01;100.00
61014;BME280;46899;47.542;19.082;2022-11-21T11:10:33;99786.28;;;4.00;100.00
61014;BME280;46899;47.542;19.082;2022-11-21T11:13:49;99784.91;;;4.28;100.00
61014;BME280;46899;47.542;19.082;2022-11-21T11:16:54;99777.50;;;3.63;100.00
61014;BME280;46899;47.542;19.082;2022-11-21T11:20:04;99774.53;;;3.85;100.00
61014;BME280;46899;47.542;19.082;2022-11-21T11:23:14;99774.16;;;4.06;100.00
61014;BME280;46899;47.542;19.082;2022-11-21T11:29:27;99774.06;;;4.57;100.00
61014;BME280;46899;47.542;19.082;2022-11-21T11:32:31;99762.19;;;4.50;100.00
61014;BME280;46899;47.542;19.082;2022-11-21T11:35:34;99755.00;;;4.21;100.00
61014;BME280;46899;47.542;19.082;2022-11-21T11:38:37;99754.25;;;4.14;100.00
61014;BME280;46899;47.542;19.082;2022-11-21T11:48:34;99734.50;;;4.58;100.00
61014;BME280;46899;47.542;19.082;2022-11-21T11:52:01;99728.00;;;4.81;100.00
61014;BME280;46899;47.542;19.082;2022-11-21T11:55:05;99726.37;;;4.76;100.00
61014;BME280;46899;47.542;19.082;2022-11-21T12:04:56;99715.50;;;5.02;100.00
61014;BME280;46899;47.542;19.082;2022-11-21T12:08:03;99720.31;;;5.17;100.00
61014;BME280;46899;47.542;19.082;2022-11-21T12:14:52;99707.00;;;5.69;100.00
61014;BME280;46899;47.542;19.082;2022-11-21T12:21:19;99689.25;;;5.57;100.00
61014;BME280;46899;47.542;19.082;2022-11-21T12:24:22;99693.56;;;5.22;100.00
61014;BME280;46899;47.542;19.082;2022-11-21T12:27:28;99679.25;;;5.09;100.00
61014;BME280;46899;47.542;19.082;2022-11-21T12:33:40;99675.63;;;5.18;100.00
61014;BME280;46899;47.542;19.082;2022-11-21T12:36:51;99673.25;;;5.44;100.00
61014;BME280;46899;47.542;19.082;2022-11-21T12:39:58;99682.34;;;5.57;100.00
61014;BME280;46899;47.542;19.082;2022-11-21T12:43:08;99668.34;;;5.67;100.00
61014;BME280;46899;47.542;19.082;2022-11-21T12:46:26;99670.00;;;5.70;100.00
61014;BME280;46899;47.542;19.082;2022-11-21T12:52:56;99665.75;;;5.99;100.00
61014;BME280;46899;47.542;19.082;2022-11-21T12:56:27;99668.00;;;6.42;100.00
61014;BME280;46899;47.542;19.082;2022-11-21T13:05:53;99663.13;;;6.88;100.00
61014;BME280;46899;47.542;19.082;2022-11-21T13:08:59;99667.28;;;6.93;100.00
61014;BME280;46899;47.542;19.082;2022-11-21T13:15:13;99664.19;;;6.81;100.00
61014;BME280;46899;47.542;19.082;2022-11-21T13:18:27;99660.88;;;6.78;100.00
61014;BME280;46899;47.542;19.082;2022-11-21T13:21:39;99667.75;;;6.20;100.00
61014;BME280;46899;47.542;19.082;2022-11-21T13:27:48;99666.22;;;6.13;100.00
61014;BME280;46899;47.542;19.082;2022-11-21T13:30:54;99671.59;;;6.07;100.00
61014;BME280;46899;47.542;19.082;2022-11-21T13:33:57;99660.47;;;6.04;100.00
61014;BME280;46899;47.542;19.082;2022-11-21T13:36:59;99663.47;;;5.89;100.00
61014;BME280;46899;47.542;19.082;2022-11-21T13:43:24;99666.56;;;6.01;100.00
61014;BME280;46899;47.542;19.082;2022-11-21T13:53:09;99662.53;;;5.91;100.00
61014;BME280;46899;47.542;19.082;2022-11-21T14:06:04;99664.28;;;5.57;100.00
61014;BME280;46899;47.542;19.082;2022-11-21T14:12:21;99669.31;;;5.29;100.00
61014;BME280;46899;47.542;19.082;2022-11-21T14:18:42;99660.44;;;5.06;100.00
61014;BME280;46899;47.542;19.082;2022-11-21T14:21:45;99663.88;;;5.05;100.00
61014;BME280;46899;47.542;19.082;2022-11-21T14:24:51;99671.88;;;4.94;100.00
61014;BME280;46899;47.542;19.082;2022-11-21T14:27:54;99669.44;;;4.88;100.00
61014;BME280;46899;47.542;19.082;2022-11-21T14:34:03;99672.44;;;4.70;100.00
61014;BME280;46899;47.542;19.082;2022-11-21T14:37:05;99670.00;;;4.64;100.00
61014;BME280;46899;47.542;19.082;2022-11-21T14:40:11;99667.53;;;4.58;100.00
61014;BME280;46899;47.542;19.082;2022-11-21T14:43:30;99671.19;;;4.49;100.00
61014;BME280;46899;47.542;19.082;2022-11-21T14:46:34;99685.16;;;4.36;100.00
61014;BME280;46899;47.542;19.082;2022-11-21T14:49:37;99690.47;;;4.29;100.00
61014;BME280;46899;47.542;19.082;2022-11-21T14:52:39;99678.50;;;4.28;100.00
61014;BME280;46899;47.542;19.082;2022-11-21T14:55:42;99688.00;;;4.24;100.00
61014;BME280;46899;47.542;19.082;2022-11-21T14:58:50;99687.09;;;4.27;100.00
61014;BME280;46899;47.542;19.082;2022-11-21T15:01:54;99688.13;;;4.18;100.00
61014;BME280;46899;47.542;19.082;2022-11-21T15:05:02;99689.94;;;4.13;100.00
61014;BME280;46899;47.542;19.082;2022-11-21T15:08:07;99686.59;;;4.09;100.00
61014;BME280;46899;47.542;19.082;2022-11-21T15:11:37;99689.97;;;4.11;100.00
61014;BME280;46899;47.542;19.082;2022-11-21T15:17:58;99695.75;;;4.23;100.00
61014;BME280;46899;47.542;19.082;2022-11-21T15:21:22;99697.34;;;4.30;100.00
61014;BME280;46899;47.542;19.082;2022-11-21T15:27:33;99699.81;;;4.34;100.00
61014;BME280;46899;47.542;19.082;2022-11-21T15:30:36;99704.09;;;4.35;100.00
61014;BME280;46899;47.542;19.082;2022-11-21T15:33:55;99704.97;;;4.34;100.00
61014;BME280;46899;47.542;19.082;2022-11-21T15:37:18;99705.72;;;4.39;100.00
61014;BME280;46899;47.542;19.082;2022-11-21T15:40:21;99714.25;;;4.43;100.00
61014;BME280;46899;47.542;19.082;2022-11-21T15:46:45;99714.91;;;4.51;100.00
61014;BME280;46899;47.542;19.082;2022-11-21T15:49:48;99723.53;;;4.50;100.00
61014;BME280;46899;47.542;19.082;2022-11-21T15:52:51;99732.19;;;4.47;100.00
61014;BME280;46899;47.542;19.082;2022-11-21T15:55:53;99727.69;;;4.55;100.00
61014;BME280;46899;47.542;19.082;2022-11-21T15:58:56;99735.53;;;4.51;100.00
61014;BME280;46899;47.542;19.082;2022-11-21T16:01:58;99730.56;;;4.42;100.00
61014;BME280;46899;47.542;19.082;2022-11-21T16:05:00;99728.81;;;4.44;100.00
61014;BME280;46899;47.542;19.082;2022-11-21T16:08:03;99724.56;;;4.41;100.00
61014;BME280;46899;47.542;19.082;2022-11-21T16:11:09;99715.78;;;4.51;100.00
61014;BME280;46899;47.542;19.082;2022-11-21T16:14:14;99713.91;;;4.58;100.00
61014;BME280;46899;47.542;19.082;2022-11-21T16:17:16;99722.34;;;4.64;100.00
61014;BME280;46899;47.542;19.082;2022-11-21T16:20:19;99727.84;;;4.49;100.00
61014;BME280;46899;47.542;19.082;2022-11-21T16:23:22;99721.75;;;4.53;100.00
61014;BME280;46899;47.542;19.082;2022-11-21T16:26:24;99714.31;;;4.40;100.00
61014;BME280;46899;47.542;19.082;2022-11-21T16:29:33;99710.97;;;4.35;100.00
61014;BME280;46899;47.542;19.082;2022-11-21T16:32:36;99710.25;;;4.27;100.00
61014;BME280;46899;47.542;19.082;2022-11-21T16:35:38;99709.47;;;4.23;100.00
61014;BME280;46899;47.542;19.082;2022-11-21T16:38:41;99707.81;;;4.21;100.00
61014;BME280;46899;47.542;19.082;2022-11-21T16:41:43;99706.25;;;4.13;100.00
61014;BME280;46899;47.542;19.082;2022-11-21T16:44:47;99693.59;;;4.01;100.00
61014;BME280;46899;47.542;19.082;2022-11-21T16:47:49;99703.31;;;3.87;100.00
61014;BME280;46899;47.542;19.082;2022-11-21T16:50:51;99697.56;;;3.73;100.00
61014;BME280;46899;47.542;19.082;2022-11-21T16:53:54;99700.41;;;3.58;100.00
61014;BME280;46899;47.542;19.082;2022-11-21T16:56:57;99698.88;;;3.48;100.00
61014;BME280;46899;47.542;19.082;2022-11-21T17:00:00;99702.50;;;3.36;100.00
61014;BME280;46899;47.542;19.082;2022-11-21T17:03:03;99707.03;;;3.21;100.00
61014;BME280;46899;47.542;19.082;2022-11-21T17:06:05;99708.69;;;3.25;100.00
61014;BME280;46899;47.542;19.082;2022-11-21T17:09:08;99707.09;;;3.16;100.00
61014;BME280;46899;47.542;19.082;2022-11-21T17:12:10;99706.47;;;3.04;100.00
61014;BME280;46899;47.542;19.082;2022-11-21T17:15:13;99710.75;;;3.02;100.00
61014;BME280;46899;47.542;19.082;2022-11-21T17:18:16;99719.47;;;2.90;100.00
61014;BME280;46899;47.542;19.082;2022-11-21T17:21:18;99725.63;;;2.80;100.00
61014;BME280;46899;47.542;19.082;2022-11-21T17:24:21;99724.09;;;2.68;100.00
61014;BME280;46899;47.542;19.082;2022-11-21T17:27:23;99719.13;;;2.56;100.00
61014;BME280;46899;47.542;19.082;2022-11-21T17:30:26;99726.81;;;2.55;100.00
61014;BME280;46899;47.542;19.082;2022-11-21T17:33:28;99727.69;;;2.52;100.00
61014;BME280;46899;47.542;19.082;2022-11-21T17:36:31;99737.09;;;2.56;100.00
61014;BME280;46899;47.542;19.082;2022-11-21T17:39:35;99726.91;;;2.49;100.00
61014;BME280;46899;47.542;19.082;2022-11-21T17:42:38;99726.87;;;2.50;100.00
61014;BME280;46899;47.542;19.082;2022-11-21T17:45:42;99737.16;;;2.47;100.00